Time;durP1;ratioP1;P1;durP2;ratioP2;P2;SDS_P1;SDS_P2;PMS_P1;PMS_P2;Temp;Humidity;BMP_temperature;BMP_pressure;BME280_temperature;BME280_humidity;BME280_pressure;Samples;Min_cycle;Max_cycle;Signal;HPM_P1;HPM_P2
2022/03/22 00:01:14;;;;;;;47.47;28.08;;;10.60;99.90;;;;;;5040577;28;20063;-76
2022/03/22 00:03:45;;;;;;;53.40;31.98;;;10.60;99.90;;;;;;5029630;28;20037;-76
2022/03/22 00:06:10;;;;;;;50.30;30.58;;;10.50;99.90;;;;;;5023085;28;20104;-76
2022/03/22 00:08:37;;;;;;;55.75;31.58;;;10.50;99.90;;;;;;5036393;28;20117;-77
2022/03/22 00:11:03;;;;;;;59.10;31.73;;;10.40;99.90;;;;;;5034505;28;20040;-77
2022/03/22 00:13:29;;;;;;;56.58;32.88;;;10.40;99.90;;;;;;5029668;28;20046;-77
2022/03/22 00:15:55;;;;;;;51.42;31.27;;;10.40;99.90;;;;;;5022887;28;20961;-77
2022/03/22 00:18:22;;;;;;;48.55;32.05;;;10.30;99.90;;;;;;5046536;28;20045;-77
2022/03/22 00:20:49;;;;;;;48.88;29.50;;;10.30;99.90;;;;;;5036771;28;20580;-76
2022/03/22 00:23:15;;;;;;;45.40;29.55;;;10.40;99.90;;;;;;5039214;28;20504;-76
2022/03/22 00:25:41;;;;;;;47.88;30.73;;;10.30;99.90;;;;;;5037527;28;20037;-77
2022/03/22 00:28:07;;;;;;;43.22;29.10;;;10.30;99.90;;;;;;5047848;28;20032;-76
2022/03/22 00:30:35;;;;;;;52.00;29.80;;;10.30;99.90;;;;;;5028686;28;20029;-76
2022/03/22 00:33:06;;;;;;;49.33;29.67;;;10.30;99.90;;;;;;5041215;28;20029;-76
2022/03/22 00:35:37;;;;;;;47.83;30.02;;;10.30;99.90;;;;;;5040305;28;20034;-76
2022/03/22 00:38:11;;;;;;;44.10;27.85;;;10.30;99.90;;;;;;5043103;28;20035;-76
2022/03/22 00:40:37;;;;;;;42.97;28.40;;;10.30;99.90;;;;;;5036576;28;20025;-77
2022/03/22 00:43:02;;;;;;;52.47;30.65;;;10.30;99.90;;;;;;5036394;28;20025;-76
2022/03/22 00:45:32;;;;;;;43.53;28.45;;;10.30;99.90;;;;;;5048876;28;20064;-76
2022/03/22 00:47:58;;;;;;;45.88;29.90;;;10.30;99.90;;;;;;5046423;28;20105;-76
2022/03/22 00:50:33;;;;;;;50.83;28.90;;;10.20;99.90;;;;;;5036584;28;20044;-76
2022/03/22 00:53:00;;;;;;;50.35;29.73;;;10.20;99.90;;;;;;5027277;28;20482;-76
2022/03/22 00:55:27;;;;;;;51.78;32.00;;;10.20;99.90;;;;;;5031345;28;20032;-76
2022/03/22 00:57:54;;;;;;;50.72;31.73;;;10.20;99.90;;;;;;5046596;28;20078;-77
2022/03/22 01:00:24;;;;;;;54.05;33.95;;;10.00;99.90;;;;;;5037048;28;20025;-77
2022/03/22 01:02:51;;;;;;;52.60;31.85;;;10.10;99.90;;;;;;5038601;28;20385;-77
2022/03/22 01:05:21;;;;;;;58.83;32.35;;;10.10;99.90;;;;;;5037710;28;20021;-77
2022/03/22 01:07:55;;;;;;;52.00;31.00;;;10.00;99.90;;;;;;5034352;28;20500;-77
2022/03/22 01:10:22;;;;;;;52.53;33.30;;;10.00;99.90;;;;;;5037297;28;20067;-77
2022/03/22 01:12:49;;;;;;;50.85;30.33;;;10.00;99.90;;;;;;5044752;28;20037;-76
2022/03/22 01:15:35;;;;;;;53.90;31.45;;;10.00;99.90;;;;;;5042467;28;20100;-76
2022/03/22 01:18:05;;;;;;;51.15;29.83;;;9.90;99.90;;;;;;5039549;28;20022;-76
2022/03/22 01:20:43;;;;;;;45.35;29.17;;;9.90;99.90;;;;;;5039267;28;20033;-76
2022/03/22 01:23:10;;;;;;;51.42;30.52;;;10.00;99.90;;;;;;5045093;28;20080;-76
2022/03/22 01:25:37;;;;;;;49.67;29.38;;;10.00;99.90;;;;;;5040648;28;20025;-77
2022/03/22 01:28:05;;;;;;;52.67;29.15;;;10.00;99.90;;;;;;5038950;28;20025;-75
2022/03/22 01:30:31;;;;;;;43.72;27.85;;;9.90;99.90;;;;;;5037269;28;20037;-76
2022/03/22 01:32:57;;;;;;;46.67;28.58;;;10.00;99.90;;;;;;5046787;28;20030;-76
2022/03/22 01:35:24;;;;;;;48.00;29.25;;;10.00;99.90;;;;;;5042019;28;20370;-76
2022/03/22 01:37:52;;;;;;;45.55;28.77;;;9.90;99.90;;;;;;5023058;28;20017;-76
2022/03/22 01:40:20;;;;;;;50.70;27.95;;;9.90;99.90;;;;;;5038197;28;20454;-76
2022/03/22 01:42:47;;;;;;;51.88;27.77;;;9.90;99.90;;;;;;5038723;28;20017;-75
2022/03/22 01:45:13;;;;;;;45.60;27.98;;;9.90;99.90;;;;;;5039209;28;20029;-76
2022/03/22 01:47:40;;;;;;;46.10;28.13;;;9.90;99.90;;;;;;5032317;28;20021;-76
2022/03/22 01:50:11;;;;;;;47.30;28.10;;;9.90;99.90;;;;;;5032233;28;20056;-76
2022/03/22 01:52:42;;;;;;;45.05;27.02;;;9.80;99.90;;;;;;5037132;28;20059;-76
2022/03/22 01:55:09;;;;;;;44.97;25.88;;;9.70;99.90;;;;;;5024317;28;20076;-76
2022/03/22 01:57:35;;;;;;;46.33;26.52;;;9.70;99.90;;;;;;5041054;28;20029;-76
2022/03/22 02:00:04;;;;;;;42.78;27.15;;;9.70;99.90;;;;;;5043991;28;20032;-77
2022/03/22 02:08:01;;;;;;;49.28;32.88;;;9.70;99.90;;;;;;5031428;28;20120;-77
2022/03/22 02:10:27;;;;;;;52.80;33.13;;;9.70;99.90;;;;;;5042124;28;20025;-77
2022/03/22 02:12:53;;;;;;;54.83;33.88;;;9.60;99.90;;;;;;5042272;28;20099;-76
2022/03/22 02:15:19;;;;;;;46.90;31.13;;;9.50;99.90;;;;;;5037894;28;20455;-77
2022/03/22 02:17:45;;;;;;;53.60;29.92;;;9.50;99.90;;;;;;5031802;28;20029;-77
2022/03/22 02:20:15;;;;;;;52.65;30.45;;;9.50;99.90;;;;;;5039503;28;20028;-76
2022/03/22 02:22:43;;;;;;;50.45;31.58;;;9.50;99.90;;;;;;5028721;28;20453;-76
2022/03/22 02:25:15;;;;;;;46.47;28.77;;;9.60;99.90;;;;;;5023876;28;20144;-77
2022/03/22 02:27:44;;;;;;;50.97;31.35;;;9.50;99.90;;;;;;5024537;28;20033;-77
2022/03/22 02:30:11;;;;;;;50.60;31.58;;;9.60;99.90;;;;;;5036160;28;20029;-76
2022/03/22 02:32:37;;;;;;;48.10;29.35;;;9.50;99.90;;;;;;5024707;28;20065;-77
2022/03/22 02:35:04;;;;;;;48.40;30.67;;;9.60;99.90;;;;;;5033284;28;20057;-76
2022/03/22 02:37:30;;;;;;;52.08;29.80;;;9.50;99.90;;;;;;5029396;28;20030;-76
2022/03/22 02:39:56;;;;;;;48.50;29.67;;;9.50;99.90;;;;;;5030950;28;20033;-76
2022/03/22 02:42:22;;;;;;;50.05;28.00;;;9.50;99.90;;;;;;5037666;28;20129;-74
2022/03/22 02:44:47;;;;;;;46.85;28.85;;;9.50;99.90;;;;;;5030987;28;20481;-76
2022/03/22 02:47:13;;;;;;;46.15;28.50;;;9.40;99.90;;;;;;5033040;28;20029;-76
2022/03/22 02:49:39;;;;;;;49.15;29.92;;;9.50;99.90;;;;;;5039619;28;20032;-76
2022/03/22 02:52:05;;;;;;;54.25;31.17;;;9.40;99.90;;;;;;5051622;28;20076;-77
2022/03/22 02:54:31;;;;;;;45.42;30.98;;;9.40;99.90;;;;;;5042233;28;20374;-76
2022/03/22 02:56:57;;;;;;;50.97;29.23;;;9.40;99.90;;;;;;5040859;28;20034;-76
2022/03/22 02:59:22;;;;;;;54.03;30.98;;;9.40;99.90;;;;;;5035660;28;20044;-76
2022/03/22 03:01:48;;;;;;;54.75;32.72;;;9.30;99.90;;;;;;5024157;28;20505;-76
2022/03/22 03:04:14;;;;;;;49.20;31.42;;;9.30;99.90;;;;;;5028651;28;20033;-76
2022/03/22 03:06:39;;;;;;;53.55;30.90;;;9.20;99.90;;;;;;5032731;28;20994;-77
2022/03/22 03:09:05;;;;;;;55.28;33.65;;;9.20;99.90;;;;;;5031255;28;20025;-77
2022/03/22 03:11:30;;;;;;;55.28;33.97;;;9.20;99.90;;;;;;5039737;28;20216;-76
2022/03/22 03:16:40;;;;;;;48.58;30.25;;;9.20;99.90;;;;;;5035656;28;20086;-76
2022/03/22 03:19:06;;;;;;;49.13;31.48;;;9.20;99.90;;;;;;5026675;28;20120;-77
2022/03/22 03:21:33;;;;;;;52.58;29.02;;;9.10;99.90;;;;;;5025868;28;20077;-77
2022/03/22 03:23:59;;;;;;;48.38;29.52;;;9.10;99.90;;;;;;5030396;28;20116;-77
2022/03/22 03:26:25;;;;;;;47.83;31.77;;;9.10;99.90;;;;;;5038805;28;20104;-77
2022/03/22 03:28:50;;;;;;;49.35;30.35;;;9.00;99.90;;;;;;5025027;28;20029;-77
2022/03/22 03:31:17;;;;;;;47.03;29.83;;;9.00;99.90;;;;;;5042596;28;20069;-76
2022/03/22 03:33:42;;;;;;;45.70;28.85;;;9.00;99.90;;;;;;5036861;28;20022;-77
2022/03/22 03:36:08;;;;;;;47.15;30.55;;;9.00;99.90;;;;;;5045179;28;20036;-77
2022/03/22 03:38:41;;;;;;;52.80;30.08;;;9.00;99.90;;;;;;5025421;28;20037;-77
2022/03/22 03:43:53;;;;;;;47.35;29.58;;;8.90;99.90;;;;;;5034178;28;20086;-76
2022/03/22 03:49:03;;;;;;;43.88;27.42;;;8.80;99.90;;;;;;5038674;28;20071;-76
2022/03/22 03:51:29;;;;;;;47.38;28.25;;;8.80;99.90;;;;;;5027128;28;20048;-76
2022/03/22 03:53:54;;;;;;;43.92;27.42;;;8.70;99.90;;;;;;5037047;28;20037;-76
2022/03/22 03:56:20;;;;;;;39.20;25.88;;;8.70;99.90;;;;;;5038003;28;20482;-76
2022/03/22 03:58:46;;;;;;;35.88;24.42;;;8.70;99.90;;;;;;5037451;28;20382;-77
2022/03/22 04:01:11;;;;;;;45.10;25.45;;;8.70;99.90;;;;;;5028343;28;20079;-76
2022/03/22 04:03:39;;;;;;;39.53;26.42;;;8.70;99.90;;;;;;5036236;28;20033;-76
2022/03/22 04:06:05;;;;;;;44.45;27.35;;;8.80;99.90;;;;;;5033488;28;20035;-76
2022/03/22 04:08:31;;;;;;;43.80;26.67;;;8.80;99.90;;;;;;5033299;28;20108;-77
2022/03/22 04:10:56;;;;;;;42.58;27.02;;;8.70;99.90;;;;;;5035408;28;20026;-77
2022/03/22 04:13:22;;;;;;;42.83;26.67;;;8.70;99.90;;;;;;5039016;28;20036;-77
2022/03/22 04:15:48;;;;;;;39.35;25.80;;;8.60;99.90;;;;;;5027089;28;20072;-77
2022/03/22 04:18:14;;;;;;;52.88;29.52;;;8.50;99.90;;;;;;5039017;28;20035;-77
2022/03/22 04:20:40;;;;;;;45.20;27.38;;;8.50;99.90;;;;;;5027118;28;20417;-78
2022/03/22 04:23:06;;;;;;;45.78;28.55;;;8.40;99.90;;;;;;5035807;28;20029;-76
2022/03/22 04:25:31;;;;;;;43.55;29.13;;;8.40;99.90;;;;;;5042498;28;20029;-76
2022/03/22 04:33:25;;;;;;;39.80;24.35;;;8.30;99.90;;;;;;5034126;28;20515;-76
2022/03/22 04:35:51;;;;;;;39.47;24.90;;;8.30;99.90;;;;;;5039738;28;20363;-76
2022/03/22 04:38:17;;;;;;;41.28;24.75;;;8.30;99.90;;;;;;5041331;28;20079;-76
2022/03/22 04:40:42;;;;;;;44.83;24.10;;;8.30;99.90;;;;;;5027269;28;20034;-76
2022/03/22 04:43:08;;;;;;;41.05;25.08;;;8.30;99.90;;;;;;5034652;28;20066;-77
2022/03/22 04:45:35;;;;;;;46.83;25.33;;;8.30;99.90;;;;;;5043648;28;20437;-76
2022/03/22 04:48:01;;;;;;;41.30;25.27;;;8.30;99.90;;;;;;5032668;28;20017;-76
2022/03/22 04:50:27;;;;;;;47.03;27.23;;;8.30;99.90;;;;;;5029923;28;20615;-76
2022/03/22 04:56:43;;;;;;;39.42;24.90;;;8.20;99.90;;;;;;5029278;28;20040;-76
2022/03/22 04:58:34;;;;;;;39.70;22.90;;;8.20;99.90;;;;;;5027096;28;20045;-77
2022/03/22 05:01:00;;;;;;;38.97;23.88;;;8.20;99.90;;;;;;5032973;28;20029;-76
2022/03/22 05:03:26;;;;;;;39.45;25.08;;;8.10;99.90;;;;;;5042303;28;20038;-76
2022/03/22 05:08:36;;;;;;;42.33;25.50;;;8.10;99.90;;;;;;5031037;28;20124;-77
2022/03/22 05:11:01;;;;;;;44.53;25.73;;;8.20;99.90;;;;;;5036612;28;20115;-77
2022/03/22 05:13:27;;;;;;;39.70;25.88;;;8.10;99.90;;;;;;5033676;28;20108;-77
2022/03/22 05:15:53;;;;;;;40.30;25.42;;;8.00;99.90;;;;;;5051195;28;20071;-76
2022/03/22 05:18:20;;;;;;;39.38;26.13;;;8.00;99.90;;;;;;5034308;28;20026;-77
2022/03/22 05:20:46;;;;;;;37.75;23.38;;;8.10;99.90;;;;;;5035067;28;20018;-76
2022/03/22 05:23:12;;;;;;;40.65;25.58;;;8.10;99.90;;;;;;5038557;28;20091;-76
2022/03/22 05:25:37;;;;;;;40.30;23.80;;;8.00;99.90;;;;;;5032828;28;20497;-76
2022/03/22 05:28:03;;;;;;;37.92;24.65;;;8.00;99.90;;;;;;5030901;28;20037;-77
2022/03/22 05:30:31;;;;;;;46.00;25.75;;;8.00;99.90;;;;;;5037020;28;20025;-77
2022/03/22 05:32:57;;;;;;;44.17;25.17;;;7.90;99.90;;;;;;5040770;28;20036;-77
2022/03/22 05:35:23;;;;;;;42.90;26.48;;;7.90;99.90;;;;;;5047016;28;20029;-76
2022/03/22 05:37:50;;;;;;;46.83;25.90;;;7.80;99.90;;;;;;5028798;28;20037;-76
2022/03/22 05:40:16;;;;;;;43.95;27.40;;;7.80;99.90;;;;;;5040264;28;20093;-77
2022/03/22 05:42:42;;;;;;;47.92;28.67;;;7.80;99.90;;;;;;5023159;28;20056;-77
2022/03/22 05:45:09;;;;;;;46.90;26.27;;;7.80;99.90;;;;;;5038473;28;20029;-78
2022/03/22 05:47:36;;;;;;;41.53;24.67;;;7.80;99.90;;;;;;5043782;28;20033;-77
2022/03/22 05:50:02;;;;;;;36.97;24.45;;;7.90;99.90;;;;;;5030241;28;20033;-77
2022/03/22 05:52:27;;;;;;;38.38;22.00;;;7.80;99.90;;;;;;5032617;28;20045;-77
2022/03/22 05:54:53;;;;;;;37.83;21.25;;;7.80;99.90;;;;;;5034414;28;20025;-77
2022/03/22 05:57:18;;;;;;;36.22;23.20;;;7.70;99.90;;;;;;5029185;28;20474;-76
2022/03/22 05:59:44;;;;;;;40.70;24.85;;;7.80;99.90;;;;;;5034644;28;20028;-77
2022/03/22 06:02:10;;;;;;;43.63;23.80;;;7.80;99.90;;;;;;5028535;28;20021;-76
2022/03/22 06:04:36;;;;;;;43.17;23.90;;;7.80;99.90;;;;;;5025630;28;20382;-76
2022/03/22 06:07:02;;;;;;;33.20;22.10;;;7.80;99.90;;;;;;5030656;28;20037;-76
2022/03/22 06:09:28;;;;;;;40.50;22.50;;;7.80;99.90;;;;;;5030256;28;20026;-76
2022/03/22 06:11:53;;;;;;;38.85;23.25;;;7.80;99.90;;;;;;5030613;28;20029;-76
2022/03/22 06:14:19;;;;;;;37.83;24.02;;;7.90;99.90;;;;;;5030531;28;20021;-76
2022/03/22 06:16:45;;;;;;;36.90;22.70;;;7.90;99.90;;;;;;5035278;28;20052;-76
2022/03/22 06:19:10;;;;;;;49.67;25.85;;;7.80;99.90;;;;;;5033532;28;20017;-76
2022/03/22 06:21:36;;;;;;;41.00;24.67;;;7.80;99.90;;;;;;5030858;28;20454;-76
2022/03/22 06:24:01;;;;;;;38.30;22.17;;;7.80;99.90;;;;;;5031843;28;20076;-76
2022/03/22 06:26:27;;;;;;;37.42;23.25;;;7.90;99.90;;;;;;5047082;28;20108;-77
2022/03/22 06:28:53;;;;;;;33.08;21.17;;;7.90;99.90;;;;;;5027222;28;20470;-77
2022/03/22 06:31:18;;;;;;;31.35;19.50;;;7.90;99.90;;;;;;5037853;28;20042;-77
2022/03/22 06:33:44;;;;;;;38.28;22.45;;;7.90;99.90;;;;;;5033689;28;20075;-77
2022/03/22 06:36:10;;;;;;;34.25;23.02;;;7.90;99.90;;;;;;5036161;28;20497;-77
2022/03/22 06:38:36;;;;;;;37.90;22.15;;;7.90;99.90;;;;;;5028028;28;20025;-77
2022/03/22 06:41:03;;;;;;;39.58;25.52;;;8.00;99.90;;;;;;5033703;28;20496;-77
2022/03/22 06:43:29;;;;;;;42.10;24.55;;;8.00;99.90;;;;;;5029015;28;20097;-77
2022/03/22 06:45:55;;;;;;;38.20;23.25;;;8.00;99.90;;;;;;5035103;28;20025;-76
2022/03/22 06:48:22;;;;;;;40.65;23.83;;;8.00;99.90;;;;;;5037145;28;20025;-76
2022/03/22 06:50:49;;;;;;;33.65;23.13;;;8.10;99.90;;;;;;5025874;28;20038;-76
2022/03/22 06:53:15;;;;;;;37.10;23.95;;;8.10;99.90;;;;;;5032897;28;20381;-76
2022/03/22 06:55:41;;;;;;;38.63;23.50;;;8.20;99.90;;;;;;5028214;28;20508;-76
2022/03/22 06:58:07;;;;;;;43.47;23.92;;;8.20;99.90;;;;;;5023629;28;20496;-78
2022/03/22 07:00:33;;;;;;;38.55;23.25;;;8.30;99.90;;;;;;5038719;28;20029;-77
2022/03/22 07:03:01;;;;;;;46.17;24.83;;;8.30;99.90;;;;;;5025402;28;20026;-79
2022/03/22 07:05:28;;;;;;;42.22;23.10;;;8.30;99.90;;;;;;5040212;28;20044;-79
2022/03/22 07:07:53;;;;;;;38.65;24.90;;;8.30;99.90;;;;;;5041133;28;20056;-78
2022/03/22 07:10:19;;;;;;;38.25;23.85;;;8.40;99.90;;;;;;5037588;28;20081;-77
2022/03/22 07:12:53;;;;;;;39.47;23.33;;;8.50;99.90;;;;;;5030957;28;20041;-77
2022/03/22 07:15:46;;;;;;;40.08;24.55;;;8.60;99.90;;;;;;5040506;28;20026;-77
2022/03/22 07:18:12;;;;;;;;;;;8.70;99.90;;;;;;5030323;28;20067;-75
2022/03/22 07:20:38;;;;;;;48.08;28.33;;;8.70;99.90;;;;;;5033253;28;20516;-78
2022/03/22 07:23:04;;;;;;;52.10;28.00;;;8.80;99.90;;;;;;5021763;28;20033;-77
2022/03/22 07:25:30;;;;;;;39.03;26.67;;;8.80;99.90;;;;;;5036627;28;20481;-78
2022/03/22 07:27:56;;;;;;;45.17;27.33;;;8.90;99.90;;;;;;5029919;28;20032;-78
2022/03/22 07:30:22;;;;;;;45.13;26.55;;;9.10;99.90;;;;;;5034366;28;20025;-78
2022/03/22 07:32:47;;;;;;;49.00;28.85;;;9.10;99.90;;;;;;5032645;28;20052;-77
2022/03/22 07:35:17;;;;;;;45.60;28.02;;;9.20;99.90;;;;;;5026835;28;20032;-78
2022/03/22 07:37:43;;;;;;;50.30;29.10;;;9.30;99.90;;;;;;5025963;28;20040;-78
2022/03/22 07:40:10;;;;;;;47.20;27.75;;;9.30;99.90;;;;;;5037861;28;20033;-78
2022/03/22 07:42:37;;;;;;;48.28;28.27;;;9.50;99.90;;;;;;5030638;28;20104;-78
2022/03/22 07:45:08;;;;;;;49.47;26.55;;;9.60;99.90;;;;;;5042222;28;20022;-77
2022/03/22 07:47:34;;;;;;;46.33;26.63;;;9.80;99.90;;;;;;5035288;28;20044;-78
2022/03/22 07:55:37;;;;;;;56.38;31.02;;;10.10;99.90;;;;;;5040081;28;20080;-76
2022/03/22 07:58:05;;;;;;;43.65;26.35;;;10.30;99.90;;;;;;5026996;28;20101;-82
2022/03/22 08:00:31;;;;;;;50.63;27.00;;;10.40;99.90;;;;;;5034573;28;20429;-78
2022/03/22 08:03:03;;;;;;;46.88;27.27;;;10.60;99.90;;;;;;5032285;28;20064;-78
2022/03/22 08:05:30;;;;;;;42.88;24.58;;;10.70;99.90;;;;;;5026523;28;20092;-78
2022/03/22 08:07:56;;;;;;;44.95;24.27;;;10.80;99.90;;;;;;5035606;28;20026;-75
2022/03/22 08:10:22;;;;;;;41.80;25.25;;;10.90;99.90;;;;;;5025384;28;20083;-81
2022/03/22 08:12:49;;;;;;;40.60;26.13;;;11.10;99.90;;;;;;5033634;28;20094;-78
2022/03/22 08:15:15;;;;;;;44.47;25.92;;;11.20;99.90;;;;;;5026469;28;20033;-77
2022/03/22 08:17:41;;;;;;;45.85;26.65;;;11.40;99.90;;;;;;5039881;28;20461;-78
2022/03/22 08:20:09;;;;;;;41.70;25.38;;;11.60;99.90;;;;;;5026815;28;20036;-78
2022/03/22 08:22:55;;;;;;;37.33;25.42;;;11.70;99.90;;;;;;5034987;28;20423;-77
2022/03/22 08:25:37;;;;;;;37.75;25.17;;;11.80;99.90;;;;;;5034240;28;20033;-79
2022/03/22 08:28:08;;;;;;;40.72;24.58;;;11.90;99.90;;;;;;5037655;28;20040;-78
2022/03/22 08:30:35;;;;;;;39.65;24.52;;;12.10;99.90;;;;;;5033774;28;20017;-78
2022/03/22 08:33:07;;;;;;;40.00;25.42;;;12.30;99.90;;;;;;5035606;28;20042;-78
2022/03/22 08:35:33;;;;;;;40.30;25.17;;;12.40;99.90;;;;;;5026227;28;20381;-78
2022/03/22 08:37:59;;;;;;;38.95;24.50;;;12.50;99.90;;;;;;5043189;28;20072;-80
2022/03/22 08:40:25;;;;;;;45.63;24.17;;;12.70;99.90;;;;;;5032030;28;20057;-78
2022/03/22 08:42:53;;;;;;;37.13;24.17;;;12.80;99.90;;;;;;5042962;28;20037;-79
2022/03/22 08:45:22;;;;;;;41.45;24.95;;;12.90;99.90;;;;;;5043235;28;20028;-79
2022/03/22 08:47:50;;;;;;;42.13;24.13;;;13.00;99.90;;;;;;5045970;28;20503;-79
2022/03/22 08:50:18;;;;;;;39.05;25.13;;;13.10;99.90;;;;;;5040742;28;20422;-79
2022/03/22 08:52:47;;;;;;;44.53;27.08;;;13.20;99.90;;;;;;5046248;28;20041;-79
2022/03/22 08:55:14;;;;;;;41.85;25.65;;;13.40;99.90;;;;;;5037082;28;20470;-78
2022/03/22 08:57:42;;;;;;;37.70;24.63;;;13.60;99.90;;;;;;5041729;28;20412;-78
2022/03/22 09:00:10;;;;;;;40.75;24.38;;;13.80;99.90;;;;;;5034333;28;20412;-79
2022/03/22 09:02:40;;;;;;;37.95;24.65;;;13.90;99.90;;;;;;5030004;28;20034;-79
2022/03/22 09:07:52;;;;;;;42.25;28.88;;;14.20;99.90;;;;;;5037816;28;20114;-78
2022/03/22 09:10:22;;;;;;;45.75;25.35;;;14.40;99.90;;;;;;5047727;28;20567;-79
2022/03/22 09:12:49;;;;;;;42.42;22.85;;;14.40;99.90;;;;;;5030676;28;20053;-80
2022/03/22 09:15:15;;;;;;;36.00;22.65;;;14.50;99.90;;;;;;5038189;28;20025;-79
2022/03/22 09:17:42;;;;;;;40.60;23.55;;;14.60;99.90;;;;;;5039131;28;20462;-79
2022/03/22 09:20:12;;;;;;;41.30;25.15;;;14.80;99.90;;;;;;5038105;28;20013;-79
2022/03/22 09:22:38;;;;;;;42.80;24.45;;;14.90;99.90;;;;;;5025777;28;20486;-79
2022/03/22 09:25:04;;;;;;;38.97;24.85;;;15.10;99.90;;;;;;5036908;28;20018;-81
2022/03/22 09:27:30;;;;;;;38.33;22.38;;;15.20;99.90;;;;;;5041945;28;20568;-78
2022/03/22 09:29:57;;;;;;;38.85;23.42;;;15.30;99.90;;;;;;5030276;28;20825;-77
2022/03/22 09:32:23;;;;;;;38.08;22.30;;;15.50;99.90;;;;;;5035570;28;20034;-76
2022/03/22 09:34:49;;;;;;;36.10;24.13;;;15.60;99.90;;;;;;5031740;28;20484;-76
2022/03/22 09:37:16;;;;;;;36.42;21.77;;;15.60;99.50;;;;;;5037299;28;20415;-77
2022/03/22 09:39:43;;;;;;;39.30;23.48;;;15.80;99.90;;;;;;5048157;28;20017;-78
2022/03/22 09:42:09;;;;;;;38.65;23.70;;;15.90;99.10;;;;;;5028074;28;20039;-77
2022/03/22 09:44:35;;;;;;;39.28;24.40;;;16.00;99.10;;;;;;5038844;28;20104;-78
2022/03/22 09:47:03;;;;;;;38.15;23.52;;;16.20;98.40;;;;;;5032179;28;20093;-78
2022/03/22 09:49:29;;;;;;;34.70;24.00;;;16.40;98.40;;;;;;5028128;28;20037;-77
2022/03/22 09:51:56;;;;;;;40.00;22.85;;;16.50;96.90;;;;;;5037644;28;20482;-78
2022/03/22 09:54:23;;;;;;;35.33;23.58;;;16.70;98.10;;;;;;5032042;28;20435;-81
2022/03/22 09:56:49;;;;;;;36.78;22.42;;;16.80;97.30;;;;;;5034976;28;20091;-77
2022/03/22 09:59:17;;;;;;;37.08;24.27;;;17.00;97.10;;;;;;5043839;28;20017;-77
2022/03/22 10:01:43;;;;;;;41.70;24.05;;;17.10;95.90;;;;;;5028858;28;20144;-77
2022/03/22 10:04:13;;;;;;;37.90;22.38;;;17.00;96.70;;;;;;5034076;28;20100;-77
2022/03/22 10:06:50;;;;;;;36.90;21.92;;;17.10;96.00;;;;;;5026271;28;20026;-77
2022/03/22 10:09:27;;;;;;;34.13;22.58;;;17.20;95.40;;;;;;5041837;28;20021;-78
2022/03/22 10:11:52;;;;;;;37.78;21.45;;;17.40;96.50;;;;;;5029057;28;20034;-77
2022/03/22 10:14:19;;;;;;;36.70;22.00;;;17.60;95.50;;;;;;5041480;28;20035;-78
2022/03/22 10:16:50;;;;;;;36.78;22.75;;;17.70;93.80;;;;;;5040600;28;20022;-78
2022/03/22 10:19:18;;;;;;;34.10;22.55;;;17.70;92.40;;;;;;5051645;28;20021;-78
2022/03/22 10:21:45;;;;;;;30.88;20.15;;;17.80;93.60;;;;;;5040954;28;20040;-78
2022/03/22 10:24:14;;;;;;;32.95;19.27;;;17.80;92.90;;;;;;5031531;28;20021;-78
2022/03/22 10:26:40;;;;;;;34.70;21.75;;;18.00;91.40;;;;;;5038720;28;20036;-78
2022/03/22 10:29:07;;;;;;;32.83;21.23;;;18.20;94.00;;;;;;5030470;28;20038;-81
2022/03/22 10:31:40;;;;;;;36.88;22.02;;;18.40;96.40;;;;;;5030966;28;20537;-79
2022/03/22 10:34:07;;;;;;;41.55;23.23;;;18.60;94.00;;;;;;5029226;28;20455;-78
2022/03/22 10:36:35;;;;;;;38.10;22.45;;;18.50;92.30;;;;;;5029277;28;20094;-78
2022/03/22 10:39:04;;;;;;;37.28;24.67;;;18.50;93.00;;;;;;5039156;28;20366;-78
2022/03/22 10:41:32;;;;;;;35.33;22.08;;;18.60;92.10;;;;;;5029187;28;20084;-78
2022/03/22 10:44:05;;;;;;;33.88;22.48;;;18.60;92.60;;;;;;5041392;28;20493;-79
2022/03/22 10:46:32;;;;;;;37.92;23.40;;;18.70;91.40;;;;;;5027786;28;20064;-79
2022/03/22 10:49:07;;;;;;;42.83;22.75;;;18.80;92.80;;;;;;5031288;28;20544;-79
2022/03/22 10:51:53;;;;;;;35.42;21.80;;;18.90;92.20;;;;;;5023558;28;20080;-78
2022/03/22 10:54:20;;;;;;;37.42;22.40;;;19.00;95.00;;;;;;5035539;28;20046;-79
2022/03/22 10:56:48;;;;;;;35.40;22.90;;;19.00;93.10;;;;;;5026811;28;20079;-78
2022/03/22 10:59:16;;;;;;;33.78;21.02;;;19.10;90.80;;;;;;5036452;28;20108;-79
2022/03/22 11:01:43;;;;;;;35.53;23.45;;;19.20;90.60;;;;;;5023283;28;20045;-78
2022/03/22 11:04:10;;;;;;;39.28;23.20;;;19.20;89.10;;;;;;5032980;28;20021;-79
2022/03/22 11:06:38;;;;;;;35.28;21.73;;;19.40;93.10;;;;;;5035618;28;20055;-78
2022/03/22 11:09:04;;;;;;;36.97;22.38;;;19.50;88.80;;;;;;5026154;28;20029;-78
2022/03/22 11:11:31;;;;;;;39.15;21.95;;;19.60;87.80;;;;;;5040326;28;20045;-78
2022/03/22 11:13:58;;;;;;;31.98;21.90;;;19.70;89.70;;;;;;5022952;28;20022;-80
2022/03/22 11:16:27;;;;;;;35.22;21.17;;;19.70;86.00;;;;;;5038876;28;20608;-78
2022/03/22 11:18:56;;;;;;;41.08;23.13;;;19.80;89.00;;;;;;5037685;28;20022;-80
2022/03/22 11:21:25;;;;;;;40.67;23.40;;;19.80;85.60;;;;;;5026707;28;20034;-78
2022/03/22 11:23:51;;;;;;;38.08;22.90;;;19.80;87.40;;;;;;5030833;28;20025;-78
2022/03/22 11:26:20;;;;;;;34.80;22.05;;;19.90;89.00;;;;;;5034263;28;20481;-79
2022/03/22 11:28:50;;;;;;;31.50;19.05;;;20.10;85.80;;;;;;5030698;28;20056;-79
2022/03/22 11:31:19;;;;;;;33.88;22.33;;;19.90;85.00;;;;;;5029738;28;20033;-79
2022/03/22 11:36:59;;;;;;;39.08;22.70;;;20.10;86.40;;;;;;5037580;28;20203;-79
2022/03/22 11:42:20;;;;;;;37.35;21.95;;;20.20;90.20;;;;;;5033037;28;20060;-80
2022/03/22 11:45:00;;;;;;;32.28;20.92;;;20.20;87.60;;;;;;5028662;28;20022;-79
2022/03/22 11:47:42;;;;;;;35.88;20.25;;;20.40;85.50;;;;;;5033730;28;20032;-78
2022/03/22 11:50:13;;;;;;;29.35;19.75;;;20.40;82.90;;;;;;5024416;28;20052;-80
2022/03/22 11:52:40;;;;;;;31.15;19.38;;;20.60;83.00;;;;;;5038902;28;20486;-79
2022/03/22 11:55:05;;;;;;;29.58;19.42;;;20.60;83.50;;;;;;5041514;28;20299;-78
2022/03/22 11:57:52;;;;;;;30.83;20.73;;;20.50;80.10;;;;;;5039153;28;20037;-79
2022/03/22 12:00:37;;;;;;;29.17;19.35;;;20.60;83.00;;;;;;5038749;28;20070;-79
2022/03/22 12:03:08;;;;;;;34.78;19.15;;;20.80;81.10;;;;;;5034139;28;20026;-79
2022/03/22 12:05:34;;;;;;;26.13;17.60;;;20.90;85.30;;;;;;5028880;28;20029;-79
2022/03/22 12:08:06;;;;;;;28.92;18.30;;;20.70;79.80;;;;;;5029205;28;20469;-79
2022/03/22 12:10:31;;;;;;;35.10;20.33;;;20.90;79.60;;;;;;5035166;28;20104;-79
2022/03/22 12:12:58;;;;;;;28.10;17.35;;;20.90;80.90;;;;;;5032729;28;20126;-78
2022/03/22 12:15:24;;;;;;;30.63;16.23;;;20.80;78.60;;;;;;5041680;28;20032;-78
2022/03/22 12:17:50;;;;;;;23.75;15.55;;;20.70;79.20;;;;;;5023495;28;20038;-79
2022/03/22 12:20:19;;;;;;;24.35;15.40;;;20.90;84.20;;;;;;5035087;28;20370;-79
2022/03/22 12:22:49;;;;;;;31.85;17.27;;;20.90;83.10;;;;;;5024499;28;20017;-79
2022/03/22 12:25:18;;;;;;;30.05;17.92;;;21.10;82.60;;;;;;5042465;28;20032;-78
2022/03/22 12:27:56;;;;;;;23.15;16.10;;;21.00;83.70;;;;;;5029002;28;20156;-79
2022/03/22 12:30:25;;;;;;;30.55;18.50;;;21.30;82.40;;;;;;5034146;28;20040;-79
2022/03/22 12:32:52;;;;;;;26.38;15.88;;;21.30;77.70;;;;;;5024297;28;20062;-78
2022/03/22 12:35:19;;;;;;;26.38;15.43;;;21.40;82.60;;;;;;5035322;28;20071;-78
2022/03/22 12:37:45;;;;;;;24.20;15.75;;;21.20;82.20;;;;;;5028009;28;20025;-79
2022/03/22 12:40:13;;;;;;;28.98;15.52;;;21.30;81.20;;;;;;5035622;28;20492;-78
2022/03/22 12:42:40;;;;;;;26.83;17.63;;;21.30;84.70;;;;;;5043752;28;20037;-78
2022/03/22 12:45:06;;;;;;;27.80;17.15;;;21.10;77.60;;;;;;5024850;28;20029;-79
2022/03/22 12:47:32;;;;;;;25.63;15.65;;;21.00;82.00;;;;;;5026648;28;20026;-79
2022/03/22 12:49:58;;;;;;;22.67;16.60;;;21.20;78.10;;;;;;5025952;28;20113;-79
2022/03/22 12:52:28;;;;;;;29.45;16.75;;;21.20;79.80;;;;;;5026882;28;20132;-79
2022/03/22 12:54:55;;;;;;;26.35;17.45;;;21.30;79.10;;;;;;5026936;28;20152;-78
2022/03/22 12:57:21;;;;;;;30.30;18.20;;;21.20;75.40;;;;;;5035317;28;20041;-79
2022/03/22 12:59:46;;;;;;;26.70;15.95;;;21.10;75.70;;;;;;5027304;28;20022;-79
2022/03/22 13:02:12;;;;;;;28.35;16.55;;;21.10;75.70;;;;;;5037153;28;20025;-79
2022/03/22 13:04:47;;;;;;;25.80;17.73;;;21.10;74.60;;;;;;5039972;28;20393;-79
2022/03/22 13:07:30;;;;;;;26.73;16.02;;;21.20;77.20;;;;;;5032629;28;20457;-77
2022/03/22 13:12:43;;;;;;;27.38;16.15;;;21.20;79.00;;;;;;5038116;28;20091;-78
2022/03/22 13:15:12;;;;;;;31.15;17.80;;;21.10;76.20;;;;;;5034587;28;20032;-79